createdAt,value
2023-04-09T00:08:38.641Z,100.00
2023-04-09T00:12:40.505Z,100.00
2023-04-09T00:16:42.273Z,100.00
2023-04-09T00:20:44.769Z,100.00
2023-04-09T00:24:46.439Z,100.00
2023-04-09T00:28:48.273Z,100.00
2023-04-09T00:32:50.721Z,100.00
2023-04-09T00:36:52.534Z,100.00
2023-04-09T00:40:54.292Z,100.00
2023-04-09T00:44:56.096Z,100.00
2023-04-09T00:48:57.821Z,100.00
2023-04-09T00:52:59.561Z,100.00
2023-04-09T00:57:01.845Z,100.00
2023-04-09T01:01:03.856Z,100.00
2023-04-09T01:05:06.336Z,100.00
2023-04-09T01:09:28.657Z,100.00
2023-04-09T01:14:06.516Z,100.00
2023-04-09T01:18:16.083Z,100.00
2023-04-09T01:22:37.355Z,100.00
2023-04-09T01:26:52.579Z,100.00
2023-04-09T01:31:03.079Z,100.00
2023-04-09T01:35:07.274Z,100.00
2023-04-09T01:39:09.618Z,100.00
2023-04-09T01:43:14.013Z,100.00
2023-04-09T01:47:16.036Z,100.00
2023-04-09T01:51:18.502Z,100.00
2023-04-09T01:55:20.146Z,100.00
2023-04-09T01:59:21.803Z,100.00
2023-04-09T02:03:40.135Z,100.00
2023-04-09T02:07:46.282Z,100.00
2023-04-09T02:11:50.138Z,100.00
2023-04-09T02:15:52.757Z,100.00
2023-04-09T02:19:54.758Z,100.00
2023-04-09T02:23:56.580Z,100.00
2023-04-09T02:27:59.076Z,100.00
2023-04-09T02:32:00.795Z,100.00
2023-04-09T02:36:02.737Z,100.00
2023-04-09T02:40:04.729Z,100.00
2023-04-09T02:44:06.760Z,100.00
2023-04-09T02:48:08.564Z,100.00
2023-04-09T02:52:11.535Z,100.00
2023-04-09T02:56:13.409Z,100.00
2023-04-09T03:00:15.289Z,100.00
2023-04-09T03:04:17.384Z,100.00
2023-04-09T03:08:19.095Z,100.00
2023-04-09T03:12:20.806Z,100.00
2023-04-09T03:16:25.200Z,100.00
2023-04-09T03:20:26.928Z,100.00
2023-04-09T03:24:28.697Z,100.00
2023-04-09T03:28:35.685Z,100.00
2023-04-09T03:32:38.468Z,100.00
2023-04-09T03:36:40.469Z,100.00
2023-04-09T03:40:50.644Z,100.00
2023-04-09T03:44:55.246Z,100.00
2023-04-09T03:49:07.865Z,100.00
2023-04-09T03:53:16.532Z,100.00
2023-04-09T03:57:20.744Z,100.00
2023-04-09T04:01:25.626Z,100.00
2023-04-09T04:05:31.852Z,100.00
2023-04-09T04:09:37.875Z,100.00
2023-04-09T04:13:44.516Z,100.00
2023-04-09T04:17:46.489Z,100.00
2023-04-09T04:22:04.036Z,100.00
2023-04-09T04:26:11.067Z,100.00
2023-04-09T04:30:13.271Z,100.00
2023-04-09T04:34:28.392Z,100.00
2023-04-09T04:38:41.359Z,100.00
2023-04-09T04:42:49.031Z,100.00
2023-04-09T04:46:51.531Z,100.00
2023-04-09T04:51:01.252Z,100.00
2023-04-09T04:55:10.788Z,100.00
2023-04-09T04:59:12.662Z,100.00
2023-04-09T05:03:34.682Z,100.00
2023-04-09T05:07:58.666Z,100.00
2023-04-09T05:12:01.423Z,100.00
2023-04-09T05:16:04.044Z,100.00
2023-04-09T05:20:08.608Z,100.00
2023-04-09T05:24:27.301Z,100.00
2023-04-09T05:28:30.023Z,100.00
2023-04-09T05:32:41.585Z,100.00
2023-04-09T05:36:43.434Z,100.00
2023-04-09T05:40:46.373Z,100.00
2023-04-09T05:44:48.703Z,100.00
2023-04-09T05:48:54.531Z,100.00
2023-04-09T05:52:58.380Z,100.00
2023-04-09T05:57:07.198Z,100.00
2023-04-09T06:01:12.000Z,100.00
2023-04-09T06:05:14.056Z,100.00
2023-04-09T06:09:15.785Z,100.00
2023-04-09T06:13:17.719Z,100.00
2023-04-09T06:17:19.519Z,100.00
2023-04-09T06:21:21.436Z,100.00
2023-04-09T06:25:23.090Z,100.00
2023-04-09T06:29:24.808Z,100.00
2023-04-09T06:33:27.099Z,100.00
2023-04-09T06:37:28.759Z,100.00
2023-04-09T06:41:30.945Z,100.00
2023-04-09T06:45:33.766Z,100.00
2023-04-09T06:49:35.990Z,100.00
2023-04-09T06:53:40.941Z,100.00
2023-04-09T06:57:42.809Z,100.00
2023-04-09T07:01:45.163Z,100.00
2023-04-09T07:05:47.376Z,100.00
2023-04-09T07:09:49.270Z,100.00
2023-04-09T07:13:51.436Z,100.00
2023-04-09T07:17:53.385Z,100.00
2023-04-09T07:21:55.599Z,98.31
2023-04-09T07:25:57.318Z,99.79
2023-04-09T07:29:59.950Z,100.00
2023-04-09T07:34:01.587Z,99.45
2023-04-09T07:38:03.517Z,95.92
2023-04-09T07:42:06.504Z,94.17
2023-04-09T07:46:08.122Z,89.46
2023-04-09T07:50:10.590Z,89.41
2023-04-09T07:54:12.272Z,90.04
2023-04-09T07:58:13.928Z,88.47
2023-04-09T08:02:15.847Z,88.02
2023-04-09T08:06:17.548Z,85.33
2023-04-09T08:10:19.612Z,87.19
2023-04-09T08:14:21.564Z,84.54
2023-04-09T08:18:23.294Z,83.95
2023-04-09T08:22:24.968Z,83.19
2023-04-09T08:26:27.458Z,82.72
2023-04-09T08:30:29.509Z,79.24
2023-04-09T08:34:31.153Z,79.89
2023-04-09T08:38:32.798Z,78.87
2023-04-09T08:42:35.901Z,79.49
2023-04-09T08:46:37.593Z,78.24
2023-04-09T08:50:39.578Z,73.71
2023-04-09T08:54:41.282Z,73.78
2023-04-09T08:58:47.246Z,71.44
2023-04-09T09:03:11.935Z,70.58
2023-04-09T09:07:14.095Z,69.30
2023-04-09T09:11:27.242Z,69.45
2023-04-09T09:15:30.264Z,72.42
2023-04-09T09:19:33.796Z,72.61
2023-04-09T09:23:36.898Z,71.47
2023-04-09T09:27:40.685Z,70.90
2023-04-09T09:31:51.736Z,67.48
2023-04-09T09:35:54.687Z,66.10
2023-04-09T09:39:57.101Z,61.41
2023-04-09T09:43:58.930Z,62.23
2023-04-09T09:48:00.784Z,61.50
2023-04-09T09:52:04.848Z,59.15
2023-04-09T09:56:12.035Z,59.22
2023-04-09T10:00:15.836Z,59.11
2023-04-09T10:04:20.168Z,58.63
2023-04-09T10:08:23.731Z,58.09
2023-04-09T10:12:27.386Z,56.44
2023-04-09T10:16:29.198Z,54.31
2023-04-09T10:20:42.032Z,55.04
2023-04-09T10:24:44.156Z,52.97
2023-04-09T10:28:46.463Z,54.11
2023-04-09T10:32:48.227Z,52.80
2023-04-09T10:36:55.052Z,53.28
2023-04-09T10:40:56.750Z,52.06
2023-04-09T10:45:08.288Z,50.01
2023-04-09T10:49:17.206Z,48.85
2023-04-09T10:53:26.390Z,50.17
2023-04-09T10:57:28.170Z,50.17
2023-04-09T11:01:31.093Z,49.16
2023-04-09T11:05:34.672Z,46.31
2023-04-09T11:09:36.676Z,45.82
2023-04-09T11:13:38.513Z,43.51
2023-04-09T11:17:40.911Z,43.09
2023-04-09T11:21:46.432Z,42.67
2023-04-09T11:25:50.803Z,44.06
2023-04-09T11:29:56.306Z,42.78
2023-04-09T11:33:57.985Z,41.54
2023-04-09T11:37:59.752Z,41.49
2023-04-09T11:42:02.116Z,41.55
2023-04-09T11:46:04.756Z,40.49
2023-04-09T11:50:08.149Z,40.71
2023-04-09T11:54:12.082Z,40.70
2023-04-09T11:58:14.808Z,41.52
2023-04-09T12:02:18.603Z,41.62
2023-04-09T12:06:23.163Z,40.32
2023-04-09T12:10:29.813Z,41.01
2023-04-09T12:14:31.525Z,41.48
2023-04-09T12:18:36.916Z,41.31
2023-04-09T12:22:41.055Z,39.95
2023-04-09T12:26:43.783Z,39.54
2023-04-09T12:30:45.495Z,40.02
2023-04-09T12:34:47.650Z,39.35
2023-04-09T12:38:49.894Z,38.05
2023-04-09T12:42:51.842Z,38.94
2023-04-09T12:46:53.843Z,39.37
2023-04-09T12:50:55.540Z,39.85
2023-04-09T12:54:57.268Z,38.08
2023-04-09T12:58:59.070Z,36.00
2023-04-09T13:03:00.886Z,35.34
2023-04-09T13:07:02.658Z,36.03
2023-04-09T13:11:04.624Z,36.20
2023-04-09T13:15:06.919Z,36.63
2023-04-09T13:19:10.126Z,35.45
2023-04-09T13:23:11.864Z,32.15
2023-04-09T13:27:14.084Z,30.25
2023-04-09T13:31:15.836Z,29.65
2023-04-09T13:35:19.209Z,27.71
2023-04-09T13:39:20.867Z,29.37
2023-04-09T13:43:28.076Z,30.48
2023-04-09T13:47:30.527Z,31.47
2023-04-09T13:51:32.385Z,32.58
2023-04-09T13:55:34.408Z,33.07
2023-04-09T13:59:38.194Z,33.97
2023-04-09T14:03:40.736Z,34.45
2023-04-09T14:07:42.356Z,34.17
2023-04-09T14:11:44.072Z,34.96
2023-04-09T14:15:46.403Z,35.30
2023-04-09T14:19:48.209Z,34.52
2023-04-09T14:23:50.046Z,35.13
2023-04-09T14:27:52.280Z,35.65
2023-04-09T14:31:57.158Z,36.19
2023-04-09T14:35:59.348Z,36.04
2023-04-09T14:40:01.180Z,36.77
2023-04-09T14:44:02.986Z,36.17
2023-04-09T14:48:04.648Z,35.89
2023-04-09T14:52:06.588Z,35.39
2023-04-09T14:56:08.441Z,35.06
2023-04-09T15:00:14.086Z,34.91
2023-04-09T15:04:16.280Z,35.61
2023-04-09T15:08:18.093Z,36.13
2023-04-09T15:12:19.790Z,35.73
2023-04-09T15:16:27.259Z,35.50
2023-04-09T15:20:29.004Z,35.62
2023-04-09T15:24:30.673Z,36.40
2023-04-09T15:28:33.381Z,36.27
2023-04-09T15:32:34.989Z,36.75
2023-04-09T15:36:36.720Z,36.94
2023-04-09T15:40:42.601Z,37.75
2023-04-09T15:45:04.996Z,37.46
2023-04-09T15:49:07.492Z,37.15
2023-04-09T15:53:09.197Z,37.08
2023-04-09T15:57:11.099Z,37.33
2023-04-09T16:01:13.039Z,36.41
2023-04-09T16:05:15.735Z,36.23
2023-04-09T16:09:17.522Z,36.05
2023-04-09T16:13:19.260Z,36.09
2023-04-09T16:17:20.984Z,35.86
2023-04-09T16:21:22.799Z,36.33
2023-04-09T16:25:24.689Z,37.38
2023-04-09T16:29:26.515Z,37.99
2023-04-09T16:33:29.105Z,38.95
2023-04-09T16:37:31.371Z,40.10
2023-04-09T16:41:35.011Z,40.57
2023-04-09T16:45:39.036Z,41.20
2023-04-09T16:49:41.002Z,41.29
2023-04-09T16:53:42.747Z,42.47
2023-04-09T16:57:45.079Z,43.92
2023-04-09T17:01:46.981Z,43.56
2023-04-09T17:05:49.501Z,43.28
2023-04-09T17:09:51.563Z,43.72
2023-04-09T17:13:53.872Z,43.59
2023-04-09T17:17:55.568Z,42.86
2023-04-09T17:21:57.319Z,42.24
2023-04-09T17:26:01.180Z,43.56
2023-04-09T17:30:04.398Z,44.26
2023-04-09T17:34:08.683Z,43.90
2023-04-09T17:38:14.073Z,43.86
2023-04-09T17:42:15.753Z,44.06
2023-04-09T17:46:18.076Z,44.71
2023-04-09T17:50:19.913Z,44.63
2023-04-09T17:54:21.900Z,44.87
2023-04-09T17:58:25.053Z,45.70
2023-04-09T18:02:27.687Z,46.77
2023-04-09T18:06:30.094Z,47.83
2023-04-09T18:10:31.879Z,48.88
2023-04-09T18:14:33.709Z,50.18
2023-04-09T18:18:35.380Z,51.26
2023-04-09T18:22:38.329Z,51.76
2023-04-09T18:26:40.001Z,52.66
2023-04-09T18:30:42.088Z,53.58
2023-04-09T18:34:45.242Z,53.58
2023-04-09T18:38:47.097Z,54.56
2023-04-09T18:42:55.093Z,55.30
2023-04-09T18:46:57.204Z,55.58
2023-04-09T18:51:00.570Z,56.18
2023-04-09T18:55:02.246Z,56.88
2023-04-09T18:59:05.061Z,56.87
2023-04-09T19:03:07.313Z,56.81
2023-04-09T19:07:09.748Z,57.15
2023-04-09T19:11:12.721Z,57.80
2023-04-09T19:15:14.315Z,58.17
2023-04-09T19:19:15.952Z,58.08
2023-04-09T19:23:17.719Z,58.72
2023-04-09T19:27:19.625Z,59.20
2023-04-09T19:31:21.402Z,59.61
2023-04-09T19:35:23.321Z,59.59
2023-04-09T19:39:25.015Z,59.72
2023-04-09T19:43:27.058Z,59.68
2023-04-09T19:47:29.143Z,60.08
2023-04-09T19:51:30.866Z,60.38
2023-04-09T19:55:33.527Z,61.03
2023-04-09T19:59:37.565Z,61.42
2023-04-09T20:03:41.671Z,62.42
2023-04-09T20:07:44.485Z,62.34
2023-04-09T20:11:46.871Z,62.96
2023-04-09T20:15:50.027Z,63.64
2023-04-09T20:19:51.698Z,64.44
2023-04-09T20:23:53.359Z,64.72
2023-04-09T20:27:55.366Z,64.64
2023-04-09T20:31:57.926Z,64.59
2023-04-09T20:36:00.115Z,65.14
2023-04-09T20:40:02.170Z,64.80
2023-04-09T20:44:05.005Z,65.32
2023-04-09T20:48:07.502Z,65.06
2023-04-09T20:52:09.691Z,65.68
2023-04-09T20:56:12.784Z,65.98
2023-04-09T21:00:15.194Z,66.22
2023-04-09T21:04:19.774Z,66.42
2023-04-09T21:08:21.524Z,66.77
2023-04-09T21:12:23.161Z,66.92
2023-04-09T21:16:27.329Z,67.00
2023-04-09T21:20:29.073Z,66.94
2023-04-09T21:24:31.552Z,67.46
2023-04-09T21:28:33.325Z,67.42
2023-04-09T21:32:35.147Z,67.41
2023-04-09T21:36:39.456Z,67.39
2023-04-09T21:40:41.170Z,67.49
2023-04-09T21:44:42.937Z,67.41
2023-04-09T21:48:44.609Z,67.03
2023-04-09T21:52:47.421Z,67.06
2023-04-09T21:56:49.066Z,67.12
2023-04-09T22:00:50.835Z,67.38
2023-04-09T22:04:52.519Z,67.22
2023-04-09T22:08:57.157Z,67.23
2023-04-09T22:12:59.681Z,67.75
2023-04-09T22:17:02.270Z,67.72
2023-04-09T22:21:04.980Z,67.87
2023-04-09T22:25:07.262Z,68.13
2023-04-09T22:29:08.928Z,68.70
2023-04-09T22:33:10.827Z,69.24
2023-04-09T22:37:12.478Z,69.16
2023-04-09T22:41:16.089Z,69.74
2023-04-09T22:45:17.795Z,70.27
2023-04-09T22:49:19.595Z,70.45
2023-04-09T22:53:21.878Z,70.84
2023-04-09T22:57:23.579Z,70.56
2023-04-09T23:01:25.385Z,70.72
2023-04-09T23:05:27.131Z,71.05
2023-04-09T23:09:30.409Z,71.37
2023-04-09T23:13:32.058Z,71.44
2023-04-09T23:17:35.275Z,71.70
2023-04-09T23:21:37.239Z,72.09
2023-04-09T23:25:38.916Z,71.99
2023-04-09T23:29:40.528Z,72.08
2023-04-09T23:33:42.286Z,72.00
2023-04-09T23:37:44.092Z,72.42
2023-04-09T23:41:45.959Z,73.08
2023-04-09T23:45:49.939Z,73.97
2023-04-09T23:49:51.591Z,73.97
2023-04-09T23:53:53.458Z,74.18
2023-04-09T23:57:55.307Z,74.55
